createdAt,value
2023-02-06T00:01:17.956Z,30.43
2023-02-06T00:03:44.741Z,30.44
2023-02-06T00:06:11.521Z,32.11
2023-02-06T00:08:38.277Z,33.24
2023-02-06T00:11:05.348Z,34.36
2023-02-06T00:13:32.140Z,33.40
2023-02-06T00:15:58.937Z,32.83
2023-02-06T00:18:25.767Z,32.18
2023-02-06T00:20:52.569Z,31.71
2023-02-06T00:23:19.319Z,31.55
2023-02-06T00:25:46.060Z,31.34
2023-02-06T00:28:12.843Z,31.28
2023-02-06T00:30:39.653Z,31.28
2023-02-06T00:33:06.419Z,30.86
2023-02-06T00:35:33.468Z,30.97
2023-02-06T00:38:00.715Z,30.93
2023-02-06T00:40:27.626Z,30.90
2023-02-06T00:42:54.402Z,30.81
2023-02-06T00:45:21.134Z,30.99
2023-02-06T00:47:47.949Z,30.93
2023-02-06T00:50:15.621Z,30.94
2023-02-06T00:52:42.358Z,30.68
2023-02-06T00:55:09.149Z,30.59
2023-02-06T00:57:35.891Z,30.36
2023-02-06T01:00:02.635Z,30.47
2023-02-06T01:02:29.434Z,32.10
2023-02-06T01:04:56.266Z,33.19
2023-02-06T01:07:23.007Z,34.68
2023-02-06T01:09:49.851Z,34.08
2023-02-06T01:12:16.738Z,32.94
2023-02-06T01:14:43.455Z,32.20
2023-02-06T01:17:10.514Z,31.74
2023-02-06T01:19:37.277Z,31.51
2023-02-06T01:22:04.003Z,31.52
2023-02-06T01:24:30.751Z,31.26
2023-02-06T01:26:57.475Z,31.07
2023-02-06T01:29:24.217Z,31.14
2023-02-06T01:31:51.011Z,31.01
2023-02-06T01:34:17.739Z,31.01
2023-02-06T01:36:44.471Z,31.06
2023-02-06T01:39:11.237Z,30.64
2023-02-06T01:41:38.047Z,30.66
2023-02-06T01:44:04.784Z,30.64
2023-02-06T01:46:31.588Z,30.67
2023-02-06T01:48:58.359Z,30.71
2023-02-06T01:51:25.109Z,30.47
2023-02-06T01:53:51.853Z,32.23
2023-02-06T01:56:19.475Z,33.52
2023-02-06T01:58:46.246Z,35.30
2023-02-06T02:01:13.159Z,33.67
2023-02-06T02:03:39.894Z,32.50
2023-02-06T02:06:06.611Z,31.91
2023-02-06T02:08:33.406Z,31.72
2023-02-06T02:11:00.127Z,31.44
2023-02-06T02:13:26.867Z,31.03
2023-02-06T02:15:53.668Z,31.05
2023-02-06T02:18:20.502Z,31.26
2023-02-06T02:20:47.239Z,31.01
2023-02-06T02:23:14.037Z,30.85
2023-02-06T02:25:41.061Z,30.94
2023-02-06T02:28:07.840Z,30.92
2023-02-06T02:30:34.709Z,30.74
2023-02-06T02:33:01.501Z,30.70
2023-02-06T02:35:28.298Z,30.48
2023-02-06T02:37:55.044Z,30.40
2023-02-06T02:40:21.845Z,30.53
2023-02-06T02:42:48.587Z,30.60
2023-02-06T02:45:15.327Z,30.49
2023-02-06T02:47:42.052Z,32.43
2023-02-06T02:50:08.787Z,33.28
2023-02-06T02:52:35.549Z,34.90
2023-02-06T02:55:02.295Z,33.51
2023-02-06T02:57:29.045Z,32.32
2023-02-06T02:59:55.798Z,31.84
2023-02-06T03:02:22.600Z,31.36
2023-02-06T03:04:49.393Z,31.47
2023-02-06T03:07:16.234Z,30.94
2023-02-06T03:09:45.646Z,31.16
2023-02-06T03:12:12.798Z,30.93
2023-02-06T03:14:39.575Z,30.96
2023-02-06T03:17:06.418Z,30.76
2023-02-06T03:19:33.220Z,30.81
2023-02-06T03:21:59.973Z,30.85
2023-02-06T03:24:26.783Z,30.84
2023-02-06T03:26:53.526Z,30.66
2023-02-06T03:29:20.277Z,30.55
2023-02-06T03:31:47.058Z,30.76
2023-02-06T03:34:13.842Z,30.35
2023-02-06T03:36:40.593Z,30.50
2023-02-06T03:39:07.387Z,30.44
2023-02-06T03:41:34.150Z,30.80
2023-02-06T03:44:00.906Z,32.24
2023-02-06T03:46:27.743Z,32.30
2023-02-06T03:48:54.485Z,33.30
2023-02-06T03:51:21.292Z,33.16
2023-02-06T03:53:48.083Z,32.62
2023-02-06T03:56:14.836Z,32.14
2023-02-06T03:58:41.582Z,31.59
2023-02-06T04:01:08.366Z,31.42
2023-02-06T04:03:35.168Z,31.35
2023-02-06T04:06:01.959Z,31.12
2023-02-06T04:08:28.709Z,31.02
2023-02-06T04:10:55.453Z,30.89
2023-02-06T04:13:22.219Z,31.14
2023-02-06T04:15:48.976Z,30.88
2023-02-06T04:18:15.708Z,30.53
2023-02-06T04:20:42.492Z,30.62
2023-02-06T04:23:09.228Z,30.59
2023-02-06T04:25:36.286Z,30.62
2023-02-06T04:28:03.246Z,30.22
2023-02-06T04:30:30.066Z,30.51
2023-02-06T04:32:56.811Z,32.50
2023-02-06T04:35:23.557Z,33.08
2023-02-06T04:37:50.284Z,33.63
2023-02-06T04:40:17.038Z,33.19
2023-02-06T04:42:43.793Z,32.68
2023-02-06T04:45:10.565Z,31.75
2023-02-06T04:47:37.324Z,31.57
2023-02-06T04:50:04.087Z,31.47
2023-02-06T04:52:30.818Z,30.93
2023-02-06T04:54:57.551Z,31.06
2023-02-06T04:57:24.300Z,30.92
2023-02-06T04:59:51.039Z,30.94
2023-02-06T05:02:17.842Z,31.06
2023-02-06T05:04:44.629Z,30.80
2023-02-06T05:07:11.351Z,30.74
2023-02-06T05:09:38.101Z,30.50
2023-02-06T05:12:05.032Z,30.46
2023-02-06T05:14:31.800Z,30.72
2023-02-06T05:16:58.525Z,30.40
2023-02-06T05:19:25.262Z,30.42
2023-02-06T05:21:51.986Z,30.34
2023-02-06T05:24:18.718Z,31.92
2023-02-06T05:26:46.421Z,32.48
2023-02-06T05:29:13.149Z,33.22
2023-02-06T05:31:39.996Z,33.44
2023-02-06T05:34:06.850Z,33.41
2023-02-06T05:36:34.699Z,33.39
2023-02-06T05:39:01.459Z,32.49
2023-02-06T05:41:28.213Z,31.71
2023-02-06T05:43:54.954Z,31.49
2023-02-06T05:46:21.834Z,31.51
2023-02-06T05:48:48.617Z,31.23
2023-02-06T05:51:15.781Z,31.17
2023-02-06T05:53:42.526Z,31.16
2023-02-06T05:56:09.300Z,30.78
2023-02-06T05:58:36.049Z,31.00
2023-02-06T06:01:02.775Z,30.67
2023-02-06T06:03:31.380Z,30.71
2023-02-06T06:05:59.221Z,30.59
2023-02-06T06:08:25.947Z,30.61
2023-02-06T06:10:52.721Z,30.65
2023-02-06T06:13:19.491Z,30.65
2023-02-06T06:15:46.236Z,30.29
2023-02-06T06:18:13.048Z,30.31
2023-02-06T06:20:39.900Z,32.24
2023-02-06T06:23:06.670Z,32.52
2023-02-06T06:25:33.710Z,33.04
2023-02-06T06:28:00.755Z,33.54
2023-02-06T06:30:27.569Z,32.81
2023-02-06T06:32:54.336Z,32.31
2023-02-06T06:35:21.088Z,31.94
2023-02-06T06:37:47.862Z,31.62
2023-02-06T06:40:14.621Z,31.54
2023-02-06T06:42:41.338Z,31.32
2023-02-06T06:45:08.085Z,30.98
2023-02-06T06:47:35.009Z,30.98
2023-02-06T06:50:01.762Z,31.16
2023-02-06T06:52:28.587Z,30.80
2023-02-06T06:54:55.396Z,30.77
2023-02-06T06:57:22.132Z,30.84
2023-02-06T06:59:48.850Z,30.66
2023-02-06T07:02:15.604Z,30.93
2023-02-06T07:04:42.329Z,30.65
2023-02-06T07:07:09.139Z,30.42
2023-02-06T07:09:35.939Z,30.47
2023-02-06T07:12:02.737Z,32.02
2023-02-06T07:14:29.508Z,32.09
2023-02-06T07:16:56.293Z,32.69
2023-02-06T07:19:23.052Z,33.73
2023-02-06T07:21:49.817Z,34.35
2023-02-06T07:24:16.626Z,33.94
2023-02-06T07:26:43.412Z,33.97
2023-02-06T07:29:10.181Z,33.63
2023-02-06T07:31:37.087Z,32.90
2023-02-06T07:34:03.853Z,32.26
2023-02-06T07:36:30.602Z,31.88
2023-02-06T07:38:57.373Z,31.74
2023-02-06T07:41:24.118Z,31.47
2023-02-06T07:43:50.872Z,31.33
2023-02-06T07:46:17.801Z,31.33
2023-02-06T07:48:44.565Z,31.19
2023-02-06T07:51:11.322Z,30.91
2023-02-06T07:53:38.144Z,31.03
2023-02-06T07:56:04.875Z,30.90
2023-02-06T07:58:31.610Z,30.81
2023-02-06T08:01:00.567Z,30.71
2023-02-06T08:03:27.335Z,30.76
2023-02-06T08:05:54.094Z,30.76
2023-02-06T08:08:20.905Z,30.54
2023-02-06T08:10:49.139Z,30.64
2023-02-06T08:13:16.482Z,30.44
2023-02-06T08:15:43.235Z,30.42
2023-02-06T08:18:09.999Z,30.62
2023-02-06T08:20:36.731Z,31.60
2023-02-06T08:23:04.172Z,32.46
2023-02-06T08:25:30.913Z,33.19
2023-02-06T08:27:57.662Z,33.35
2023-02-06T08:30:24.612Z,34.46
2023-02-06T08:32:51.450Z,34.32
2023-02-06T08:35:18.191Z,35.15
2023-02-06T08:37:44.948Z,34.81
2023-02-06T08:40:11.746Z,34.93
2023-02-06T08:42:38.532Z,34.59
2023-02-06T08:45:05.307Z,34.38
2023-02-06T08:47:32.125Z,34.07
2023-02-06T08:50:00.117Z,34.30
2023-02-06T08:52:28.319Z,33.47
2023-02-06T08:54:55.052Z,32.66
2023-02-06T08:57:21.832Z,32.15
2023-02-06T08:59:49.664Z,32.14
2023-02-06T09:02:16.547Z,31.84
2023-02-06T09:04:43.330Z,31.50
2023-02-06T09:07:10.175Z,31.70
2023-02-06T09:09:37.047Z,31.50
2023-02-06T09:12:03.975Z,31.47
2023-02-06T09:14:30.850Z,31.36
2023-02-06T09:16:58.116Z,31.17
2023-02-06T09:19:25.079Z,31.22
2023-02-06T09:21:51.823Z,31.27
2023-02-06T09:24:18.622Z,31.26
2023-02-06T09:26:59.001Z,31.13
2023-02-06T09:29:28.633Z,31.15
2023-02-06T09:31:57.173Z,31.14
2023-02-06T09:34:25.834Z,31.14
2023-02-06T09:36:54.389Z,30.76
2023-02-06T09:39:21.210Z,31.10
2023-02-06T09:41:47.950Z,30.60
2023-02-06T09:44:14.739Z,30.74
2023-02-06T09:46:41.716Z,30.77
2023-02-06T09:49:08.767Z,30.80
2023-02-06T09:51:35.572Z,30.93
2023-02-06T09:54:05.395Z,30.44
2023-02-06T09:56:32.128Z,30.94
2023-02-06T09:58:58.869Z,30.83
2023-02-06T10:01:25.695Z,30.69
2023-02-06T10:03:52.535Z,32.40
2023-02-06T10:06:19.380Z,32.50
2023-02-06T10:08:46.148Z,33.11
2023-02-06T10:11:12.942Z,33.96
2023-02-06T10:13:39.697Z,33.61
2023-02-06T10:16:06.495Z,33.04
2023-02-06T10:18:33.308Z,32.47
2023-02-06T10:21:00.127Z,32.04
2023-02-06T10:23:26.882Z,31.92
2023-02-06T10:25:53.638Z,31.69
2023-02-06T10:28:20.695Z,31.68
2023-02-06T10:30:47.510Z,31.22
2023-02-06T10:33:24.878Z,31.27
2023-02-06T10:35:51.923Z,31.05
2023-02-06T10:38:18.667Z,31.26
2023-02-06T10:40:45.465Z,31.20
2023-02-06T10:43:12.313Z,31.06
2023-02-06T10:45:39.254Z,31.02
2023-02-06T10:48:06.091Z,30.99
2023-02-06T10:50:32.895Z,30.89
2023-02-06T10:52:59.618Z,30.85
2023-02-06T10:55:26.677Z,31.99
2023-02-06T10:57:53.436Z,33.04
2023-02-06T11:00:20.232Z,33.74
2023-02-06T11:03:01.317Z,33.62
2023-02-06T11:05:33.794Z,33.73
2023-02-06T11:08:00.540Z,32.96
2023-02-06T11:10:27.308Z,32.33
2023-02-06T11:12:54.068Z,32.30
2023-02-06T11:15:20.791Z,32.15
2023-02-06T11:17:47.530Z,31.76
2023-02-06T11:20:14.608Z,31.78
2023-02-06T11:22:52.085Z,31.47
2023-02-06T11:25:20.526Z,31.29
2023-02-06T11:27:47.328Z,31.58
2023-02-06T11:30:14.103Z,31.51
2023-02-06T11:32:41.346Z,31.27
2023-02-06T11:35:08.094Z,31.15
2023-02-06T11:37:35.067Z,31.15
2023-02-06T11:40:02.144Z,31.16
2023-02-06T11:42:29.716Z,30.89
2023-02-06T11:44:56.591Z,31.22
2023-02-06T11:47:23.357Z,32.98
2023-02-06T11:49:50.126Z,33.38
2023-02-06T11:52:16.859Z,34.14
2023-02-06T11:54:43.598Z,34.92
2023-02-06T11:57:10.936Z,34.20
2023-02-06T11:59:37.727Z,33.46
2023-02-06T12:02:06.782Z,32.89
2023-02-06T12:04:33.904Z,32.40
2023-02-06T12:07:00.696Z,31.80
2023-02-06T12:09:27.503Z,31.95
2023-02-06T12:11:54.539Z,31.83
2023-02-06T12:14:21.264Z,31.91
2023-02-06T12:16:48.299Z,31.59
2023-02-06T12:19:15.039Z,31.68
2023-02-06T12:21:41.831Z,31.70
2023-02-06T12:24:08.617Z,31.39
2023-02-06T12:26:37.946Z,31.55
2023-02-06T12:29:04.705Z,31.43
2023-02-06T12:31:31.984Z,31.36
2023-02-06T12:34:00.557Z,31.34
2023-02-06T12:36:27.297Z,31.36
2023-02-06T12:38:54.053Z,33.28
2023-02-06T12:41:20.800Z,33.39
2023-02-06T12:43:47.539Z,34.27
2023-02-06T12:46:14.368Z,34.76
2023-02-06T12:48:41.500Z,34.27
2023-02-06T12:51:08.403Z,33.18
2023-02-06T12:53:35.398Z,32.89
2023-02-06T12:56:02.224Z,32.71
2023-02-06T12:58:29.062Z,32.38
2023-02-06T13:00:55.867Z,32.21
2023-02-06T13:03:22.758Z,32.04
2023-02-06T13:05:49.526Z,32.11
2023-02-06T13:08:16.406Z,31.67
2023-02-06T13:10:43.220Z,31.81
2023-02-06T13:13:10.065Z,31.64
2023-02-06T13:15:37.298Z,31.55
2023-02-06T13:18:04.252Z,31.52
2023-02-06T13:20:33.302Z,31.42
2023-02-06T13:23:00.195Z,31.35
2023-02-06T13:25:30.091Z,31.92
2023-02-06T13:27:56.918Z,33.41
2023-02-06T13:30:23.690Z,33.63
2023-02-06T13:32:50.674Z,34.32
2023-02-06T13:35:17.403Z,34.61
2023-02-06T13:37:44.177Z,34.23
2023-02-06T13:40:10.929Z,33.44
2023-02-06T13:42:37.659Z,33.22
2023-02-06T13:45:04.430Z,32.83
2023-02-06T13:47:31.530Z,32.41
2023-02-06T13:49:58.343Z,32.15
2023-02-06T13:52:25.147Z,32.15
2023-02-06T13:54:51.896Z,32.14
2023-02-06T13:57:18.636Z,32.02
2023-02-06T13:59:45.465Z,32.08
2023-02-06T14:02:12.268Z,31.82
2023-02-06T14:04:39.006Z,31.77
2023-02-06T14:07:05.751Z,31.75
2023-02-06T14:09:51.143Z,31.45
2023-02-06T14:12:38.617Z,31.64
2023-02-06T14:15:05.716Z,31.49
2023-02-06T14:17:32.463Z,32.52
2023-02-06T14:19:59.218Z,33.78
2023-02-06T14:22:25.959Z,33.83
2023-02-06T14:24:52.695Z,34.83
2023-02-06T14:27:19.469Z,35.20
2023-02-06T14:29:46.390Z,35.26
2023-02-06T14:32:13.138Z,34.21
2023-02-06T14:34:39.948Z,33.20
2023-02-06T14:37:06.694Z,32.80
2023-02-06T14:39:33.644Z,32.57
2023-02-06T14:42:00.429Z,32.51
2023-02-06T14:44:27.177Z,32.44
2023-02-06T14:46:54.065Z,32.37
2023-02-06T14:49:22.052Z,32.36
2023-02-06T14:51:48.788Z,32.16
2023-02-06T14:54:15.795Z,32.08
2023-02-06T14:56:42.541Z,32.02
2023-02-06T14:59:09.287Z,32.00
2023-02-06T15:01:36.098Z,31.93
2023-02-06T15:04:02.880Z,31.99
2023-02-06T15:06:29.617Z,31.88
2023-02-06T15:08:56.395Z,31.97
2023-02-06T15:11:23.266Z,32.14
2023-02-06T15:13:50.005Z,32.36
2023-02-06T15:16:16.916Z,34.00
2023-02-06T15:18:43.690Z,34.09
2023-02-06T15:21:10.431Z,35.08
2023-02-06T15:23:37.165Z,35.61
2023-02-06T15:26:03.967Z,34.55
2023-02-06T15:28:30.743Z,33.72
2023-02-06T15:30:57.553Z,33.08
2023-02-06T15:33:24.363Z,32.77
2023-02-06T15:35:52.929Z,32.62
2023-02-06T15:38:19.695Z,32.50
2023-02-06T15:40:46.504Z,32.57
2023-02-06T15:43:13.261Z,32.64
2023-02-06T15:45:40.042Z,32.26
2023-02-06T15:48:06.826Z,32.02
2023-02-06T15:50:33.567Z,32.06
2023-02-06T15:53:00.314Z,32.16
2023-02-06T15:55:27.385Z,32.01
2023-02-06T15:57:54.180Z,32.02
2023-02-06T16:00:23.298Z,32.04
2023-02-06T16:02:50.245Z,31.93
2023-02-06T16:05:17.025Z,33.88
2023-02-06T16:07:43.761Z,34.18
2023-02-06T16:10:10.647Z,35.78
2023-02-06T16:12:37.497Z,35.42
2023-02-06T16:15:04.551Z,34.22
2023-02-06T16:17:31.417Z,33.83
2023-02-06T16:19:59.781Z,33.28
2023-02-06T16:22:26.534Z,33.08
2023-02-06T16:24:53.348Z,32.60
2023-02-06T16:27:20.280Z,32.49
2023-02-06T16:29:47.046Z,32.43
2023-02-06T16:32:13.811Z,32.49
2023-02-06T16:34:40.702Z,32.34
2023-02-06T16:37:11.903Z,32.32
2023-02-06T16:39:38.855Z,32.22
2023-02-06T16:42:05.591Z,32.13
2023-02-06T16:44:43.954Z,32.16
2023-02-06T16:47:11.730Z,31.98
2023-02-06T16:49:38.571Z,32.26
2023-02-06T16:52:05.383Z,32.30
2023-02-06T16:54:32.212Z,34.55
2023-02-06T16:56:58.980Z,34.31
2023-02-06T16:59:25.771Z,36.33
2023-02-06T17:01:52.535Z,35.17
2023-02-06T17:04:19.276Z,34.23
2023-02-06T17:06:46.088Z,33.47
2023-02-06T17:09:13.324Z,33.33
2023-02-06T17:11:40.069Z,32.92
2023-02-06T17:14:06.878Z,33.09
2023-02-06T17:16:33.784Z,32.64
2023-02-06T17:19:00.567Z,32.67
2023-02-06T17:21:29.615Z,32.36
2023-02-06T17:23:56.422Z,32.36
2023-02-06T17:26:23.172Z,32.31
2023-02-06T17:28:49.934Z,32.20
2023-02-06T17:31:16.801Z,32.01
2023-02-06T17:33:43.575Z,32.07
2023-02-06T17:36:10.356Z,32.31
2023-02-06T17:38:37.119Z,32.60
2023-02-06T17:41:03.855Z,33.92
2023-02-06T17:43:30.690Z,34.90
2023-02-06T17:45:57.479Z,37.16
2023-02-06T17:48:24.258Z,35.25
2023-02-06T17:50:51.068Z,33.81
2023-02-06T17:53:17.970Z,33.51
2023-02-06T17:55:45.103Z,33.52
2023-02-06T17:58:11.939Z,33.14
2023-02-06T18:00:39.223Z,33.06
2023-02-06T18:03:06.228Z,32.79
2023-02-06T18:05:33.078Z,32.83
2023-02-06T18:07:59.862Z,32.62
2023-02-06T18:10:26.603Z,32.51
2023-02-06T18:12:53.344Z,32.50
2023-02-06T18:15:20.163Z,32.39
2023-02-06T18:17:46.958Z,32.39
2023-02-06T18:20:13.698Z,32.51
2023-02-06T18:22:41.068Z,32.09
2023-02-06T18:25:07.859Z,33.13
2023-02-06T18:27:34.994Z,34.56
2023-02-06T18:30:03.510Z,35.61
2023-02-06T18:32:30.284Z,35.95
2023-02-06T18:34:57.132Z,34.95
2023-02-06T18:37:23.896Z,34.12
2023-02-06T18:39:50.631Z,33.56
2023-02-06T18:42:36.268Z,33.25
2023-02-06T18:45:04.242Z,33.24
2023-02-06T18:47:31.117Z,32.91
2023-02-06T18:49:57.867Z,32.99
2023-02-06T18:52:24.674Z,32.69
2023-02-06T18:54:51.461Z,32.54
2023-02-06T18:57:18.220Z,32.63
2023-02-06T18:59:44.974Z,32.78
2023-02-06T19:02:11.889Z,32.41
2023-02-06T19:04:40.430Z,32.43
2023-02-06T19:07:08.606Z,32.55
2023-02-06T19:09:35.343Z,32.26
2023-02-06T19:12:02.149Z,32.30
2023-02-06T19:14:28.903Z,32.59
2023-02-06T19:16:55.669Z,33.21
2023-02-06T19:19:22.426Z,34.76
2023-02-06T19:21:49.196Z,35.85
2023-02-06T19:24:15.931Z,35.94
2023-02-06T19:26:42.678Z,35.08
2023-02-06T19:29:09.444Z,34.07
2023-02-06T19:31:38.964Z,34.13
2023-02-06T19:34:05.800Z,33.44
2023-02-06T19:36:32.544Z,33.21
2023-02-06T19:38:59.314Z,32.98
2023-02-06T19:41:26.153Z,32.86
2023-02-06T19:43:52.917Z,32.95
2023-02-06T19:46:19.663Z,32.76
2023-02-06T19:48:46.455Z,32.72
2023-02-06T19:51:13.200Z,32.72
2023-02-06T19:53:45.171Z,32.48
2023-02-06T19:56:11.951Z,32.64
2023-02-06T19:58:38.689Z,32.35
2023-02-06T20:01:05.448Z,32.46
2023-02-06T20:03:32.307Z,32.39
2023-02-06T20:05:59.065Z,34.06
2023-02-06T20:08:25.835Z,34.72
2023-02-06T20:10:54.661Z,36.11
2023-02-06T20:13:22.252Z,35.18
2023-02-06T20:15:49.117Z,34.43
2023-02-06T20:18:15.978Z,34.13
2023-02-06T20:20:42.890Z,33.33
2023-02-06T20:23:09.615Z,33.45
2023-02-06T20:25:36.558Z,33.17
2023-02-06T20:28:03.305Z,33.10
2023-02-06T20:30:30.135Z,32.82
2023-02-06T20:32:56.902Z,32.63
2023-02-06T20:35:23.650Z,32.68
2023-02-06T20:37:50.399Z,32.79
2023-02-06T20:40:17.147Z,32.54
2023-02-06T20:42:44.391Z,32.50
2023-02-06T20:45:11.786Z,32.53
2023-02-06T20:47:38.544Z,32.30
2023-02-06T20:50:05.871Z,32.29
2023-02-06T20:52:32.597Z,33.78
2023-02-06T20:54:59.348Z,35.42
2023-02-06T20:57:26.074Z,37.73
2023-02-06T20:59:52.900Z,35.94
2023-02-06T21:02:19.716Z,34.69
2023-02-06T21:04:46.530Z,33.75
2023-02-06T21:07:13.348Z,33.63
2023-02-06T21:09:40.233Z,33.28
2023-02-06T21:12:07.064Z,33.17
2023-02-06T21:14:33.858Z,33.04
2023-02-06T21:17:00.904Z,33.06
2023-02-06T21:19:29.034Z,32.79
2023-02-06T21:21:56.739Z,32.39
2023-02-06T21:24:23.495Z,32.61
2023-02-06T21:26:50.324Z,32.53
2023-02-06T21:29:17.098Z,32.57
2023-02-06T21:31:44.041Z,32.60
2023-02-06T21:34:10.820Z,32.41
2023-02-06T21:36:37.548Z,32.56
2023-02-06T21:39:04.403Z,33.16
2023-02-06T21:41:31.145Z,35.20
2023-02-06T21:43:57.879Z,38.29
2023-02-06T21:46:24.714Z,36.71
2023-02-06T21:48:52.150Z,35.10
2023-02-06T21:51:18.903Z,34.37
2023-02-06T21:53:45.657Z,33.88
2023-02-06T21:56:12.413Z,33.56
2023-02-06T21:58:39.165Z,33.42
2023-02-06T22:01:08.768Z,33.18
2023-02-06T22:03:35.732Z,33.12
2023-02-06T22:06:08.219Z,32.86
2023-02-06T22:08:34.959Z,32.90
2023-02-06T22:11:01.705Z,32.61
2023-02-06T22:13:28.464Z,32.84
2023-02-06T22:15:55.236Z,32.63
2023-02-06T22:18:22.092Z,32.41
2023-02-06T22:20:48.858Z,32.67
2023-02-06T22:23:15.602Z,32.54
2023-02-06T22:25:42.356Z,32.39
2023-02-06T22:28:09.135Z,32.57
2023-02-06T22:30:35.904Z,32.26
2023-02-06T22:33:02.659Z,33.67
2023-02-06T22:35:29.407Z,34.25
2023-02-06T22:37:56.487Z,36.64
2023-02-06T22:40:23.230Z,35.60
2023-02-06T22:42:49.995Z,34.41
2023-02-06T22:45:16.726Z,33.96
2023-02-06T22:47:43.469Z,33.77
2023-02-06T22:50:10.218Z,33.09
2023-02-06T22:52:55.443Z,33.08
2023-02-06T22:55:22.218Z,33.19
2023-02-06T22:57:48.954Z,32.88
2023-02-06T23:00:16.602Z,32.84
2023-02-06T23:02:43.394Z,32.50
2023-02-06T23:05:10.615Z,32.65
2023-02-06T23:07:37.368Z,32.67
2023-02-06T23:10:04.145Z,32.40
2023-02-06T23:12:30.890Z,32.50
2023-02-06T23:14:57.669Z,32.54
2023-02-06T23:17:24.799Z,32.60
2023-02-06T23:19:51.532Z,32.40
2023-02-06T23:22:18.290Z,32.50
2023-02-06T23:24:45.038Z,34.07
2023-02-06T23:27:11.770Z,34.17
2023-02-06T23:29:38.562Z,35.28
2023-02-06T23:32:05.380Z,35.09
2023-02-06T23:34:32.114Z,34.34
2023-02-06T23:36:58.913Z,34.25
2023-02-06T23:39:25.919Z,33.78
2023-02-06T23:41:52.655Z,33.27
2023-02-06T23:44:19.450Z,33.22
2023-02-06T23:46:47.601Z,33.04
2023-02-06T23:49:14.373Z,32.92
2023-02-06T23:51:41.148Z,32.78
2023-02-06T23:54:07.911Z,32.74
2023-02-06T23:56:34.704Z,32.91
2023-02-06T23:59:01.521Z,32.64
